Time;durP1;ratioP1;P1;durP2;ratioP2;P2;SDS_P1;SDS_P2;PMS_P1;PMS_P2;Temp;Humidity;BMP_temperature;BMP_pressure;BME280_temperature;BME280_humidity;BME280_pressure;Samples;Min_cycle;Max_cycle;Signal;HPM_P1;HPM_P2
2022/09/24 00:00:29;;;;;;;;;;;;;;;;;;5047879;28;19999;-42
2022/09/24 00:02:55;;;;;;;;;;;;;;;;;;5048111;28;19905;-42
2022/09/24 00:05:21;;;;;;;;;;;;;;;;;;5048130;28;19920;-42
2022/09/24 00:07:47;;;;;;;;;;;;;;;;;;5047560;28;20395;-42
2022/09/24 00:10:14;;;;;;;;;;;;;;;;;;5047766;28;19907;-42
2022/09/24 00:12:40;;;;;;;;;;;;;;;;;;5047467;28;19924;-42
2022/09/24 00:15:06;;;;;;;;;;;;;;;;;;5047689;28;20307;-42
2022/09/24 00:17:32;;;;;;;;;;;;;;;;;;5047462;28;19909;-42
2022/09/24 00:19:59;;;;;;;;;;;;;;;;;;5047605;28;19912;-43
2022/09/24 00:22:25;;;;;;;;;;;;;;;;;;5047236;28;19966;-42
2022/09/24 00:27:36;;;;;;;;;;;;;;;;;;5047117;28;19911;-43
2022/09/24 00:30:01;;;;;;;;;;;;;;;;;;5029244;28;20319;-43
2022/09/24 00:32:28;;;;;;;;;;;;;;;;;;5047304;28;19909;-42
2022/09/24 00:34:54;;;;;;;;;;;;;;;;;;5047731;28;19955;-42
2022/09/24 00:37:20;;;;;;;;;;;;;;;;;;5046999;28;19982;-42
2022/09/24 00:39:46;;;;;;;;;;;;;;;;;;5046228;28;20105;-42
2022/09/24 00:42:13;;;;;;;;;;;;;;;;;;5047070;28;19909;-42
2022/09/24 00:44:39;;;;;;;;;;;;;;;;;;5047105;28;19904;-42
2022/09/24 00:47:06;;;;;;;;;;;;;;;;;;5047274;28;20408;-42
2022/09/24 00:49:33;;;;;;;;;;;;;;;;;;5047024;28;19909;-42
2022/09/24 00:51:59;;;;;;;;;;;;;;;;;;5047091;28;19940;-42
2022/09/24 00:54:25;;;;;;;;;;;;;;;;;;5047737;28;20001;-43
2022/09/24 00:56:51;;;;;;;;;;;;;;;;;;5047459;28;19948;-42
2022/09/24 00:59:17;;;;;;;;;;;;;;;;;;5046652;28;19908;-44
2022/09/24 01:01:44;;;;;;;;;;;;;;;;;;5046505;28;19904;-42
2022/09/24 01:04:10;;;;;;;;;;;;;;;;;;5046663;28;20406;-42
2022/09/24 01:06:37;;;;;;;;;;;;;;;;;;5046407;28;19913;-42
2022/09/24 01:09:03;;;;;;;;;;;;;;;;;;5046564;28;19912;-42
2022/09/24 01:11:29;;;;;;;;;;;;;;;;;;5046291;28;19931;-44
2022/09/24 01:13:55;;;;;;;;;;;;;;;;;;5046717;28;19904;-43
2022/09/24 01:16:22;;;;;;;;;;;;;;;;;;5046472;28;19908;-42
2022/09/24 01:18:47;;;;;;;;;;;;;;;;;;5046179;28;19912;-42
2022/09/24 01:21:13;;;;;;;;;;;;;;;;;;5046503;28;19911;-42
2022/09/24 01:23:40;;;;;;;;;;;;;;;;;;5045835;28;19909;-43
2022/09/24 01:26:06;;;;;;;;;;;;;;;;;;5045989;28;19912;-42
2022/09/24 01:28:32;;;;;;;;;;;;;;;;;;5045851;28;20388;-43
2022/09/24 01:30:58;;;;;;;;;;;;;;;;;;5046212;28;19913;-42
2022/09/24 01:33:24;;;;;;;;;;;;;;;;;;5046663;28;19908;-43
2022/09/24 01:35:50;;;;;;;;;;;;;;;;;;5045918;28;19904;-42
2022/09/24 01:38:16;;;;;;;;;;;;;;;;;;5045749;28;20388;-42
2022/09/24 01:40:42;;;;;;;;;;;;;;;;;;5045754;28;19916;-42
2022/09/24 01:43:08;;;;;;;;;;;;;;;;;;5045903;28;20376;-42
2022/09/24 01:45:33;;;;;;;;;;;;;;;;;;5045552;28;19912;-43
2022/09/24 01:47:59;;;;;;;;;;;;;;;;;;5045908;28;20427;-44
2022/09/24 01:50:26;;;;;;;;;;;;;;;;;;5046403;28;19966;-44
2022/09/24 01:52:52;;;;;;;;;;;;;;;;;;5046123;28;19909;-43
2022/09/24 01:55:19;;;;;;;;;;;;;;;;;;5045401;28;19912;-43
2022/09/24 01:57:45;;;;;;;;;;;;;;;;;;5045474;28;19939;-43
2022/09/24 02:00:12;;;;;;;;;;;;;;;;;;5045969;28;19940;-44
2022/09/24 02:02:38;;;;;;;;;;;;;;;;;;5045315;28;19974;-42
2022/09/24 02:05:04;;;;;;;;;;;;;;;;;;5045647;28;20318;-43
2022/09/24 02:07:30;;;;;;;;;;;;;;;;;;5045769;28;19927;-42
2022/09/24 02:09:57;;;;;;;;;;;;;;;;;;5046374;28;19905;-43
2022/09/24 02:12:25;;;;;;;;;;;;;;;;;;5046175;28;19913;-42
2022/09/24 02:14:51;;;;;;;;;;;;;;;;;;5045770;28;19939;-43
2022/09/24 02:17:17;;;;;;;;;;;;;;;;;;5045867;28;19909;-43
2022/09/24 02:19:43;;;;;;;;;;;;;;;;;;5045378;28;19911;-43
2022/09/24 02:22:08;;;;;;;;;;;;;;;;;;5045561;28;19909;-43
2022/09/24 02:24:34;;;;;;;;;;;;;;;;;;5045303;28;19908;-43
2022/09/24 02:27:00;;;;;;;;;;;;;;;;;;5046024;28;19908;-43
2022/09/24 02:29:26;;;;;;;;;;;;;;;;;;5045869;28;20265;-42
2022/09/24 02:31:52;;;;;;;;;;;;;;;;;;5045886;28;19923;-43
2022/09/24 02:34:21;;;;;;;;;;;;;;;;;;5045985;28;19955;-44
2022/09/24 02:36:47;;;;;;;;;;;;;;;;;;5045397;28;19909;-42
2022/09/24 02:39:16;;;;;;;;;;;;;;;;;;5045201;28;20385;-42
2022/09/24 02:41:42;;;;;;;;;;;;;;;;;;5045028;28;19909;-42
2022/09/24 02:44:08;;;;;;;;;;;;;;;;;;5045542;28;19909;-42
2022/09/24 02:46:34;;;;;;;;;;;;;;;;;;5027120;28;19999;-42
2022/09/24 02:49:00;;;;;;;;;;;;;;;;;;5045575;28;19904;-42
2022/09/24 02:51:26;;;;;;;;;;;;;;;;;;5045806;28;19909;-42
2022/09/24 02:53:52;;;;;;;;;;;;;;;;;;5045812;28;20320;-42
2022/09/24 02:56:17;;;;;;;;;;;;;;;;;;5045373;28;19920;-42
2022/09/24 02:58:43;;;;;;;;;;;;;;;;;;5045146;28;19905;-44
2022/09/24 03:01:09;;;;;;;;;;;;;;;;;;5045995;28;20303;-43
2022/09/24 03:03:38;;;;;;;;;;;;;;;;;;5049065;28;19905;-44
2022/09/24 03:06:05;;;;;;;;;;;;;;;;;;5049150;28;20003;-42
2022/09/24 03:08:31;;;;;;;;;;;;;;;;;;5048985;28;19908;-42
2022/09/24 03:10:57;;;;;;;;;;;;;;;;;;5049223;28;20399;-42
2022/09/24 03:13:23;;;;;;;;;;;;;;;;;;5049635;28;19913;-42
2022/09/24 03:15:49;;;;;;;;;;;;;;;;;;5048790;28;19909;-43
2022/09/24 03:18:15;;;;;;;;;;;;;;;;;;5049222;28;20492;-42
2022/09/24 03:20:41;;;;;;;;;;;;;;;;;;5048747;28;20311;-42
2022/09/24 03:23:07;;;;;;;;;;;;;;;;;;5048690;28;20435;-42
2022/09/24 03:25:33;;;;;;;;;;;;;;;;;;5048661;28;19956;-42
2022/09/24 03:27:59;;;;;;;;;;;;;;;;;;5048624;28;19905;-42
2022/09/24 03:33:09;;;;;;;;;;;;;;;;;;5048696;28;19915;-42
2022/09/24 03:35:35;;;;;;;;;;;;;;;;;;5048654;28;20173;-42
2022/09/24 03:38:01;;;;;;;;;;;;;;;;;;5048755;28;19931;-42
2022/09/24 03:40:28;;;;;;;;;;;;;;;;;;5048576;28;19971;-42
2022/09/24 03:42:54;;;;;;;;;;;;;;;;;;5048912;28;19905;-42
2022/09/24 03:45:20;;;;;;;;;;;;;;;;;;5048596;28;19912;-43
2022/09/24 03:47:46;;;;;;;;;;;;;;;;;;5048092;28;19908;-42
2022/09/24 03:50:12;;;;;;;;;;;;;;;;;;5048521;28;19988;-42
2022/09/24 03:52:38;;;;;;;;;;;;;;;;;;5047558;28;19951;-42
2022/09/24 03:55:04;;;;;;;;;;;;;;;;;;5048502;28;19912;-42
2022/09/24 03:57:31;;;;;;;;;;;;;;;;;;5048446;28;19909;-42
2022/09/24 03:59:58;;;;;;;;;;;;;;;;;;5048150;28;19905;-42
2022/09/24 04:02:24;;;;;;;;;;;;;;;;;;5049103;28;20387;-43
2022/09/24 04:04:51;;;;;;;;;;;;;;;;;;5047690;28;19909;-42
2022/09/24 04:07:16;;;;;;;;;;;;;;;;;;5047870;28;19961;-42
2022/09/24 04:09:42;;;;;;;;;;;;;;;;;;5047927;28;19913;-43
2022/09/24 04:12:08;;;;;;;;;;;;;;;;;;5047558;28;20387;-43
2022/09/24 04:14:34;;;;;;;;;;;;;;;;;;5046940;28;20117;-43
2022/09/24 04:17:00;;;;;;;;;;;;;;;;;;5047918;28;20368;-43
2022/09/24 04:19:26;;;;;;;;;;;;;;;;;;5048458;28;19996;-42
2022/09/24 04:21:52;;;;;;;;;;;;;;;;;;5047700;28;20554;-43
2022/09/24 04:24:20;;;;;;;;;;;;;;;;;;5047946;28;19912;-43
2022/09/24 04:26:45;;;;;;;;;;;;;;;;;;5047401;28;20194;-43
2022/09/24 04:29:12;;;;;;;;;;;;;;;;;;5047647;28;20625;-43
2022/09/24 04:31:39;;;;;;;;;;;;;;;;;;5047439;28;20304;-42
2022/09/24 04:34:05;;;;;;;;;;;;;;;;;;5047514;28;19914;-43
2022/09/24 04:36:31;;;;;;;;;;;;;;;;;;5047569;28;19905;-43
2022/09/24 04:38:58;;;;;;;;;;;;;;;;;;5047201;28;19912;-42
2022/09/24 04:41:23;;;;;;;;;;;;;;;;;;5048131;28;20290;-43
2022/09/24 04:43:50;;;;;;;;;;;;;;;;;;5047090;28;20003;-42
2022/09/24 04:46:18;;;;;;;;;;;;;;;;;;5047355;28;20823;-42
2022/09/24 04:48:45;;;;;;;;;;;;;;;;;;5046856;28;19905;-43
2022/09/24 04:51:11;;;;;;;;;;;;;;;;;;5047321;28;20380;-43
2022/09/24 04:53:37;;;;;;;;;;;;;;;;;;5046654;28;19905;-42
2022/09/24 04:56:03;;;;;;;;;;;;;;;;;;5047251;28;19999;-43
2022/09/24 04:58:29;;;;;;;;;;;;;;;;;;5047069;28;19931;-43
2022/09/24 05:00:56;;;;;;;;;;;;;;;;;;5029432;28;19911;-43
2022/09/24 05:03:23;;;;;;;;;;;;;;;;;;5047270;28;19908;-43
2022/09/24 05:05:49;;;;;;;;;;;;;;;;;;5046603;28;19908;-43
2022/09/24 05:08:15;;;;;;;;;;;;;;;;;;5046746;28;20395;-42
2022/09/24 05:10:42;;;;;;;;;;;;;;;;;;5046713;28;19908;-43
2022/09/24 05:13:07;;;;;;;;;;;;;;;;;;5046626;28;19916;-42
2022/09/24 05:15:33;;;;;;;;;;;;;;;;;;5047165;28;19979;-43
2022/09/24 05:17:59;;;;;;;;;;;;;;;;;;5047021;28;19904;-42
2022/09/24 05:20:25;;;;;;;;;;;;;;;;;;5048065;28;19916;-43
2022/09/24 05:22:52;;;;;;;;;;;;;;;;;;5047772;28;19931;-43
2022/09/24 05:25:18;;;;;;;;;;;;;;;;;;5032086;28;20406;-43
2022/09/24 05:27:44;;;;;;;;;;;;;;;;;;5028044;28;19909;-43
2022/09/24 05:30:10;;;;;;;;;;;;;;;;;;5027699;28;19909;-43
2022/09/24 05:32:36;;;;;;;;;;;;;;;;;;5013187;28;19972;-42
2022/09/24 05:35:02;;;;;;;;;;;;;;;;;;5047690;28;19905;-43
2022/09/24 05:37:28;;;;;;;;;;;;;;;;;;5047655;28;19931;-42
2022/09/24 05:39:54;;;;;;;;;;;;;;;;;;5047874;28;20002;-43
2022/09/24 05:42:20;;;;;;;;;;;;;;;;;;5047730;28;19905;-42
2022/09/24 05:44:47;;;;;;;;;;;;;;;;;;5047275;28;19908;-42
2022/09/24 05:47:12;;;;;;;;;;;;;;;;;;5047692;28;19998;-42
2022/09/24 05:49:38;;;;;;;;;;;;;;;;;;5047021;28;19962;-44
2022/09/24 05:52:04;;;;;;;;;;;;;;;;;;5046964;28;19979;-43
2022/09/24 05:54:30;;;;;;;;;;;;;;;;;;5046780;28;19908;-43
2022/09/24 05:56:56;;;;;;;;;;;;;;;;;;5047126;28;19909;-42
2022/09/24 05:59:23;;;;;;;;;;;;;;;;;;5047661;28;19909;-43
2022/09/24 06:01:49;;;;;;;;;;;;;;;;;;5047011;28;20505;-43
2022/09/24 06:04:15;;;;;;;;;;;;;;;;;;5045632;28;20099;-43
2022/09/24 06:06:42;;;;;;;;;;;;;;;;;;5043799;28;19916;-42
2022/09/24 06:09:09;;;;;;;;;;;;;;;;;;5042512;28;20371;-43
2022/09/24 06:11:35;;;;;;;;;;;;;;;;;;5046405;28;19908;-44
2022/09/24 06:14:03;;;;;;;;;;;;;;;;;;5044447;28;19923;-42
2022/09/24 06:16:29;;;;;;;;;;;;;;;;;;5046599;28;19940;-43
2022/09/24 06:18:55;;;;;;;;;;;;;;;;;;5040087;28;20355;-44
2022/09/24 06:21:22;;;;;;;;;;;;;;;;;;5025719;28;20425;-45
2022/09/24 06:23:48;;;;;;;;;;;;;;;;;;5044375;28;20848;-43
2022/09/24 06:26:15;;;;;;;;;;;;;;;;;;5052365;28;20348;-43
2022/09/24 06:28:40;;;;;;;;;;;;;;;;;;5048155;28;19927;-43
2022/09/24 06:31:08;;;;;;;;;;;;;;;;;;5046339;28;20380;-42
2022/09/24 06:33:36;;;;;;;;;;;;;;;;;;5037314;28;19908;-43
2022/09/24 06:36:02;;;;;;;;;;;;;;;;;;5043771;28;20011;-42
2022/09/24 06:38:28;;;;;;;;;;;;;;;;;;5045698;28;19999;-42
2022/09/24 06:40:54;;;;;;;;;;;;;;;;;;5047546;28;19904;-42
2022/09/24 06:43:20;;;;;;;;;;;;;;;;;;5046368;28;19948;-44
2022/09/24 06:45:46;;;;;;;;;;;;;;;;;;5046487;28;20154;-43
2022/09/24 06:48:12;;;;;;;;;;;;;;;;;;5046449;28;19915;-43
2022/09/24 06:50:38;;;;;;;;;;;;;;;;;;5046248;28;19912;-43
2022/09/24 06:53:04;;;;;;;;;;;;;;;;;;5045945;28;19909;-43
2022/09/24 06:55:30;;;;;;;;;;;;;;;;;;5046115;28;19944;-42
2022/09/24 06:57:56;;;;;;;;;;;;;;;;;;5046804;28;19951;-42
2022/09/24 07:00:21;;;;;;;;;;;;;;;;;;5046988;28;20117;-41
2022/09/24 07:02:47;;;;;;;;;;;;;;;;;;5045866;28;19916;-43
2022/09/24 07:05:13;;;;;;;;;;;;;;;;;;5046423;28;19913;-43
2022/09/24 07:07:40;;;;;;;;;;;;;;;;;;5045771;28;19969;-42
2022/09/24 07:10:06;;;;;;;;;;;;;;;;;;5044774;28;20365;-42
2022/09/24 07:12:32;;;;;;;;;;;;;;;;;;5044668;28;19916;-42
2022/09/24 07:14:59;;;;;;;;;;;;;;;;;;5044886;28;19908;-42
2022/09/24 07:17:25;;;;;;;;;;;;;;;;;;5045509;28;20506;-42
2022/09/24 07:19:51;;;;;;;;;;;;;;;;;;5045222;28;19912;-43
2022/09/24 07:22:18;;;;;;;;;;;;;;;;;;5044974;28;20543;-43
2022/09/24 07:24:44;;;;;;;;;;;;;;;;;;5044322;28;20296;-42
2022/09/24 07:27:10;;;;;;;;;;;;;;;;;;5044885;28;19905;-42
2022/09/24 07:29:37;;;;;;;;;;;;;;;;;;5044421;28;19909;-43
2022/09/24 07:32:03;;;;;;;;;;;;;;;;;;5044551;28;20491;-43
2022/09/24 07:34:30;;;;;;;;;;;;;;;;;;5044686;28;19904;-42
2022/09/24 07:36:57;;;;;;;;;;;;;;;;;;5042460;28;19905;-42
2022/09/24 07:39:23;;;;;;;;;;;;;;;;;;5025281;28;19916;-42
2022/09/24 07:41:51;;;;;;;;;;;;;;;;;;5024468;28;19905;-43
2022/09/24 07:44:18;;;;;;;;;;;;;;;;;;5024811;28;20059;-43
2022/09/24 07:46:44;;;;;;;;;;;;;;;;;;5024475;28;19915;-42
2022/09/24 07:49:10;;;;;;;;;;;;;;;;;;5028307;28;19905;-43
2022/09/24 07:51:36;;;;;;;;;;;;;;;;;;5027810;28;19911;-43
2022/09/24 07:54:03;;;;;;;;;;;;;;;;;;5027884;28;19909;-42
2022/09/24 07:56:29;;;;;;;;;;;;;;;;;;5028416;28;20340;-43
2022/09/24 07:58:56;;;;;;;;;;;;;;;;;;5028224;28;20425;-43
2022/09/24 08:01:23;;;;;;;;;;;;;;;;;;5029008;28;19936;-43
2022/09/24 08:03:49;;;;;;;;;;;;;;;;;;5028130;28;19906;-42
2022/09/24 08:06:15;;;;;;;;;;;;;;;;;;5027840;28;19964;-43
2022/09/24 08:08:42;;;;;;;;;;;;;;;;;;5027720;28;19967;-42
2022/09/24 08:11:09;;;;;;;;;;;;;;;;;;5027900;28;19955;-42
2022/09/24 08:13:35;;;;;;;;;;;;;;;;;;5027356;28;19931;-43
2022/09/24 08:16:01;;;;;;;;;;;;;;;;;;5027894;28;20376;-43
2022/09/24 08:18:27;;;;;;;;;;;;;;;;;;5028366;28;20343;-43
2022/09/24 08:20:53;;;;;;;;;;;;;;;;;;5027913;28;19983;-42
2022/09/24 08:23:19;;;;;;;;;;;;;;;;;;5027528;28;19916;-42
2022/09/24 08:25:45;;;;;;;;;;;;;;;;;;5027385;28;19909;-43
2022/09/24 08:28:15;;;;;;;;;;;;;;;;;;5027327;28;19959;-44
2022/09/24 08:30:43;;;;;;;;;;;;;;;;;;5027242;28;19905;-42
2022/09/24 08:33:08;;;;;;;;;;;;;;;;;;5027376;28;19958;-42
2022/09/24 08:35:34;;;;;;;;;;;;;;;;;;5027035;28;19995;-42
2022/09/24 08:38:00;;;;;;;;;;;;;;;;;;5027366;28;19905;-43
2022/09/24 08:40:26;;;;;;;;;;;;;;;;;;5027350;28;19905;-42
2022/09/24 08:42:53;;;;;;;;;;;;;;;;;;5027745;28;19909;-42
2022/09/24 08:48:04;;;;;;;;;;;;;;;;;;5027049;28;19932;-42
2022/09/24 08:50:30;;;;;;;;;;;;;;;;;;5027550;28;20372;-43
2022/09/24 08:52:55;;;;;;;;;;;;;;;;;;5027309;28;20327;-43
2022/09/24 08:55:21;;;;;;;;;;;;;;;;;;5027567;28;19956;-42
2022/09/24 08:57:48;;;;;;;;;;;;;;;;;;5026928;28;20047;-42
2022/09/24 09:00:14;;;;;;;;;;;;;;;;;;5026331;28;19912;-43
2022/09/24 09:02:40;;;;;;;;;;;;;;;;;;5026603;28;19906;-43
2022/09/24 09:05:06;;;;;;;;;;;;;;;;;;5026593;28;20007;-42
2022/09/24 09:07:32;;;;;;;;;;;;;;;;;;5026899;28;19916;-42
2022/09/24 09:09:59;;;;;;;;;;;;;;;;;;5026737;28;20349;-42
2022/09/24 09:12:25;;;;;;;;;;;;;;;;;;5027251;28;19916;-42
2022/09/24 09:14:51;;;;;;;;;;;;;;;;;;5026727;28;19916;-42
2022/09/24 09:17:17;;;;;;;;;;;;;;;;;;5026636;28;19909;-42
2022/09/24 09:19:42;;;;;;;;;;;;;;;;;;5026142;28;19908;-42
2022/09/24 09:22:08;;;;;;;;;;;;;;;;;;5026703;28;19916;-42
2022/09/24 09:24:34;;;;;;;;;;;;;;;;;;5025977;28;19904;-41
2022/09/24 09:27:02;;;;;;;;;;;;;;;;;;5026115;28;20011;-42
2022/09/24 09:29:29;;;;;;;;;;;;;;;;;;5026578;28;20004;-42
2022/09/24 09:31:55;;;;;;;;;;;;;;;;;;5026605;28;19913;-42
2022/09/24 09:34:22;;;;;;;;;;;;;;;;;;5026439;28;19905;-42
2022/09/24 09:36:52;;;;;;;;;;;;;;;;;;5026108;28;19948;-43
2022/09/24 09:39:18;;;;;;;;;;;;;;;;;;5026709;28;19995;-42
2022/09/24 09:41:45;;;;;;;;;;;;;;;;;;5025996;28;20373;-43
2022/09/24 09:44:11;;;;;;;;;;;;;;;;;;5026121;28;19909;-42
2022/09/24 09:46:37;;;;;;;;;;;;;;;;;;5025480;28;20438;-42
2022/09/24 09:49:04;;;;;;;;;;;;;;;;;;5026026;28;19913;-41
2022/09/24 09:51:33;;;;;;;;;;;;;;;;;;5025946;28;19908;-42
2022/09/24 09:54:00;;;;;;;;;;;;;;;;;;5025773;28;19905;-43
2022/09/24 09:56:26;;;;;;;;;;;;;;;;;;5026255;28;20338;-42
2022/09/24 09:58:54;;;;;;;;;;;;;;;;;;5026367;28;20179;-43
2022/09/24 10:01:20;;;;;;;;;;;;;;;;;;5026106;28;20271;-42
2022/09/24 10:03:46;;;;;;;;;;;;;;;;;;5025436;28;19999;-42
2022/09/24 10:06:12;;;;;;;;;;;;;;;;;;5025693;28;19962;-42
2022/09/24 10:08:39;;;;;;;;;;;;;;;;;;5025244;28;20442;-42
2022/09/24 10:11:06;;;;;;;;;;;;;;;;;;5024652;28;19905;-42
2022/09/24 10:13:32;;;;;;;;;;;;;;;;;;5025132;28;19951;-42
2022/09/24 10:15:59;;;;;;;;;;;;;;;;;;5025726;28;20542;-42
2022/09/24 10:18:25;;;;;;;;;;;;;;;;;;5026012;28;20403;-42
2022/09/24 10:20:51;;;;;;;;;;;;;;;;;;5025917;28;19912;-42
2022/09/24 10:23:18;;;;;;;;;;;;;;;;;;5025282;28;20047;-42
2022/09/24 10:25:44;;;;;;;;;;;;;;;;;;5024996;28;19959;-42
2022/09/24 10:30:54;;;;;;;;;;;;;;;;;;5025730;28;19920;-43
2022/09/24 10:33:20;;;;;;;;;;;;;;;;;;5025236;28;19905;-42
2022/09/24 10:35:46;;;;;;;;;;;;;;;;;;5024852;28;19909;-43
2022/09/24 10:38:12;;;;;;;;;;;;;;;;;;5025445;28;20464;-42
2022/09/24 10:40:39;;;;;;;;;;;;;;;;;;5025006;28;20079;-42
2022/09/24 10:43:06;;;;;;;;;;;;;;;;;;5025261;28;19905;-42
2022/09/24 10:45:33;;;;;;;;;;;;;;;;;;5025080;28;19993;-42
2022/09/24 10:48:00;;;;;;;;;;;;;;;;;;5025030;28;19909;-42
2022/09/24 10:50:27;;;;;;;;;;;;;;;;;;5025766;28;20308;-42
2022/09/24 10:52:53;;;;;;;;;;;;;;;;;;5025537;28;19978;-43
2022/09/24 10:55:18;;;;;;;;;;;;;;;;;;5025075;28;20415;-42
2022/09/24 10:57:44;;;;;;;;;;;;;;;;;;5024811;28;20304;-42
2022/09/24 11:00:10;;;;;;;;;;;;;;;;;;5025297;28;19978;-44
2022/09/24 11:02:38;;;;;;;;;;;;;;;;;;5024494;28;20315;-42
2022/09/24 11:05:05;;;;;;;;;;;;;;;;;;5025092;28;20000;-42
2022/09/24 11:07:32;;;;;;;;;;;;;;;;;;5025007;28;19913;-43
2022/09/24 11:09:58;;;;;;;;;;;;;;;;;;5024976;28;20292;-42
2022/09/24 11:12:24;;;;;;;;;;;;;;;;;;5025368;28;19945;-43
2022/09/24 11:14:50;;;;;;;;;;;;;;;;;;5025268;28;19905;-43
2022/09/24 11:17:16;;;;;;;;;;;;;;;;;;5025038;28;20300;-43
2022/09/24 11:19:42;;;;;;;;;;;;;;;;;;5024735;28;19905;-43
2022/09/24 11:22:09;;;;;;;;;;;;;;;;;;5025579;28;20273;-43
2022/09/24 11:24:36;;;;;;;;;;;;;;;;;;5028604;28;20000;-42
2022/09/24 11:27:02;;;;;;;;;;;;;;;;;;5041624;28;19913;-44
2022/09/24 11:29:28;;;;;;;;;;;;;;;;;;5050069;28;19912;-42
2022/09/24 11:31:53;;;;;;;;;;;;;;;;;;5050412;28;19916;-43
2022/09/24 11:34:19;;;;;;;;;;;;;;;;;;5032175;28;19939;-43
2022/09/24 11:36:45;;;;;;;;;;;;;;;;;;5049611;28;19911;-42
2022/09/24 11:39:12;;;;;;;;;;;;;;;;;;5050136;28;19986;-43
2022/09/24 11:41:38;;;;;;;;;;;;;;;;;;5049654;28;19935;-43
2022/09/24 11:44:04;;;;;;;;;;;;;;;;;;5049804;28;20458;-44
2022/09/24 11:46:30;;;;;;;;;;;;;;;;;;5049794;28;19912;-44
2022/09/24 11:48:55;;;;;;;;;;;;;;;;;;5050158;28;19912;-43
2022/09/24 11:51:21;;;;;;;;;;;;;;;;;;5050310;28;19904;-43
2022/09/24 11:53:47;;;;;;;;;;;;;;;;;;5049451;28;19908;-42
2022/09/24 11:56:13;;;;;;;;;;;;;;;;;;5049675;28;19991;-43
2022/09/24 11:58:41;;;;;;;;;;;;;;;;;;5045576;28;19916;-44
2022/09/24 12:01:07;;;;;;;;;;;;;;;;;;5047732;28;20281;-44
2022/09/24 12:03:33;;;;;;;;;;;;;;;;;;5048327;28;19915;-44
2022/09/24 12:05:59;;;;;;;;;;;;;;;;;;5047831;28;19913;-42
2022/09/24 12:08:26;;;;;;;;;;;;;;;;;;5048464;28;19917;-43
2022/09/24 12:10:52;;;;;;;;;;;;;;;;;;5047595;28;19982;-43
2022/09/24 12:13:18;;;;;;;;;;;;;;;;;;5049012;28;20364;-42
2022/09/24 12:15:44;;;;;;;;;;;;;;;;;;5048576;28;19970;-43
2022/09/24 12:18:10;;;;;;;;;;;;;;;;;;5049732;28;19908;-43
2022/09/24 12:20:36;;;;;;;;;;;;;;;;;;5048287;28;19913;-42
2022/09/24 12:23:02;;;;;;;;;;;;;;;;;;5049993;28;19911;-43
2022/09/24 12:25:28;;;;;;;;;;;;;;;;;;5048184;28;19974;-44
2022/09/24 12:27:54;;;;;;;;;;;;;;;;;;5049994;28;20524;-44
2022/09/24 12:33:04;;;;;;;;;;;;;;;;;;5048395;28;20414;-43
2022/09/24 12:35:30;;;;;;;;;;;;;;;;;;5047432;28;19909;-43
2022/09/24 12:37:56;;;;;;;;;;;;;;;;;;5048774;28;19905;-43
2022/09/24 12:40:23;;;;;;;;;;;;;;;;;;5048941;28;20241;-43
2022/09/24 12:42:49;;;;;;;;;;;;;;;;;;5046936;28;20015;-44
2022/09/24 12:45:16;;;;;;;;;;;;;;;;;;5047160;28;20084;-43
2022/09/24 12:47:42;;;;;;;;;;;;;;;;;;5046442;28;19944;-44
2022/09/24 12:50:09;;;;;;;;;;;;;;;;;;5047290;28;19955;-43
2022/09/24 12:52:35;;;;;;;;;;;;;;;;;;5046697;28;19908;-43
2022/09/24 12:55:04;;;;;;;;;;;;;;;;;;5047279;28;19905;-43
2022/09/24 12:57:30;;;;;;;;;;;;;;;;;;5046883;28;20295;-44
2022/09/24 12:59:56;;;;;;;;;;;;;;;;;;5046738;28;19905;-42
2022/09/24 13:02:22;;;;;;;;;;;;;;;;;;5047221;28;19911;-42
2022/09/24 13:04:48;;;;;;;;;;;;;;;;;;5046574;28;20295;-43
2022/09/24 13:07:16;;;;;;;;;;;;;;;;;;5047087;28;19955;-43
2022/09/24 13:09:43;;;;;;;;;;;;;;;;;;5046649;28;19904;-43
2022/09/24 13:12:10;;;;;;;;;;;;;;;;;;5046392;28;19935;-43
2022/09/24 13:14:35;;;;;;;;;;;;;;;;;;5046249;28;19905;-42
2022/09/24 13:17:01;;;;;;;;;;;;;;;;;;5046317;28;19904;-42
2022/09/24 13:19:27;;;;;;;;;;;;;;;;;;5046548;28;20445;-41
2022/09/24 13:21:54;;;;;;;;;;;;;;;;;;5046976;28;19958;-42
2022/09/24 13:24:20;;;;;;;;;;;;;;;;;;5046489;28;19954;-42
2022/09/24 13:26:46;;;;;;;;;;;;;;;;;;5046271;28;19916;-41
2022/09/24 13:29:12;;;;;;;;;;;;;;;;;;5046845;28;19928;-41
2022/09/24 13:31:38;;;;;;;;;;;;;;;;;;5046232;28;19908;-41
2022/09/24 13:34:04;;;;;;;;;;;;;;;;;;5046193;28;20742;-42
2022/09/24 13:36:30;;;;;;;;;;;;;;;;;;5046421;28;19915;-42
2022/09/24 13:38:56;;;;;;;;;;;;;;;;;;5045901;28;19940;-40
2022/09/24 13:41:22;;;;;;;;;;;;;;;;;;5046649;28;19905;-41
2022/09/24 13:43:48;;;;;;;;;;;;;;;;;;5045658;28;19944;-41
2022/09/24 13:46:15;;;;;;;0.50;0.50;;;;;;;;;;5045066;28;20438;-41
2022/09/24 13:48:45;;;;;;;0.60;0.60;;;;;;;;;;5045314;28;20108;-41
2022/09/24 13:51:13;;;;;;;0.50;0.50;;;;;;;;;;5045494;28;20044;-42
2022/09/24 13:53:49;;;;;;;0.50;0.50;;;;;;;;;;5044939;28;20413;-42
2022/09/24 13:56:19;;;;;;;0.55;0.50;;;;;;;;;;5045429;28;20444;-42
2022/09/24 13:58:46;;;;;;;0.60;0.60;;;;;;;;;;5045120;28;20056;-42
2022/09/24 14:01:19;;;;;;;0.60;0.60;;;;;;;;;;5045150;28;20029;-41
2022/09/24 14:03:54;;;;;;;0.50;0.50;;;;;;;;;;5044927;28;20033;-41
2022/09/24 14:06:21;;;;;;;0.50;0.50;;;;;;;;;;5045457;28;20135;-41
2022/09/24 14:08:48;;;;;;;1.45;0.50;;;;;;;;;;5044926;28;20539;-41
2022/09/24 14:11:16;;;;;;;0.40;0.40;;;;;;;;;;5045065;28;20025;-41
2022/09/24 14:13:46;;;;;;;0.50;0.50;;;;;;;;;;5044684;28;20025;-42
2022/09/24 14:16:15;;;;;;;1.10;0.63;;;;;;;;;;5026985;28;20456;-41
2022/09/24 14:18:41;;;;;;;0.73;0.60;;;;;;;;;;5044103;28;20028;-41
2022/09/24 14:21:11;;;;;;;0.50;0.50;;;;;;;;;;5027472;28;20451;-41
2022/09/24 14:23:51;;;;;;;0.50;0.50;;;;;;;;;;5043738;28;20102;-41
2022/09/24 14:26:22;;;;;;;0.60;0.60;;;;;;;;;;5045745;28;20260;-41
2022/09/24 14:28:48;;;;;;;0.68;0.50;;;;;;;;;;5045181;28;20396;-41
2022/09/24 14:31:15;;;;;;;0.47;0.47;;;;;;;;;;5045410;28;20567;-42
2022/09/24 14:33:41;;;;;;;1.00;0.50;;;;;;;;;;5044349;28;20028;-40
2022/09/24 14:36:10;;;;;;;0.60;0.50;;;;;;;;;;5044729;28;20138;-40
2022/09/24 14:38:44;;;;;;;0.95;0.65;;;;;;;;;;5044298;28;20032;-41
2022/09/24 14:41:17;;;;;;;1.00;0.60;;;;;;;;;;5044971;28;20046;-41
2022/09/24 14:43:46;;;;;;;0.55;0.55;;;;;;;;;;5044219;28;20104;-41
2022/09/24 14:46:22;;;;;;;0.43;0.43;;;;;;;;;;5044649;28;20292;-42
2022/09/24 14:48:50;;;;;;;0.57;0.57;;;;;;;;;;5044980;28;20492;-42
2022/09/24 14:51:29;;;;;;;0.50;0.50;;;;;;;;;;5045243;28;20025;-42
2022/09/24 14:53:59;;;;;;;0.60;0.60;;;;;;;;;;5044024;28;20033;-41
2022/09/24 14:56:28;;;;;;;0.60;0.60;;;;;;;;;;5044537;28;20518;-41
2022/09/24 14:58:54;;;;;;;1.08;0.63;;;;;;;;;;5047827;28;20108;-41
2022/09/24 15:01:21;;;;;;;0.52;0.52;;;;;;;;;;5048545;28;20151;-40
2022/09/24 15:03:56;;;;;;;0.50;0.50;;;;;;;;;;5048847;28;20025;-41
2022/09/24 15:06:22;;;;;;;0.63;0.63;;;;;;;;;;5048745;28;20032;-41
2022/09/24 15:08:52;;;;;;;0.63;0.50;;;;;;;;;;5048938;28;20515;-40
2022/09/24 15:11:18;;;;;;;0.50;0.50;;;;;;;;;;5049090;28;20573;-42
2022/09/24 15:13:44;;;;;;;0.70;0.60;;;;;;;;;;5048407;28;20095;-41
2022/09/24 15:16:20;;;;;;;0.93;0.60;;;;;;;;;;5048352;28;20511;-40
2022/09/24 15:18:53;;;;;;;0.40;0.40;;;;;;;;;;5048702;28;20108;-40
2022/09/24 15:21:19;;;;;;;0.50;0.50;;;;;;;;;;5048376;28;20159;-40
2022/09/24 15:23:45;;;;;;;0.60;0.60;;;;;;;;;;5048450;28;20710;-41
2022/09/24 15:26:11;;;;;;;0.50;0.50;;;;;;;;;;5048158;28;20025;-41
2022/09/24 15:28:38;;;;;;;0.65;0.60;;;;;;;;;;5047582;28;20025;-40
2022/09/24 15:31:04;;;;;;;0.40;0.40;;;;;;;;;;5048116;28;20252;-41
2022/09/24 15:33:31;;;;;;;0.40;0.40;;;;;;;;;;5048116;28;20030;-40
2022/09/24 15:35:58;;;;;;;0.52;0.52;;;;;;;;;;5047969;28;20033;-42
2022/09/24 15:38:25;;;;;;;1.05;0.60;;;;;;;;;;5048028;28;20530;-40
2022/09/24 15:40:52;;;;;;;0.60;0.60;;;;;;;;;;5047655;28;20486;-41
2022/09/24 15:43:22;;;;;;;0.50;0.50;;;;;;;;;;5048454;28;20040;-41
2022/09/24 15:45:48;;;;;;;0.50;0.50;;;;;;;;;;5047815;28;20033;-41
2022/09/24 15:48:14;;;;;;;0.60;0.60;;;;;;;;;;5048489;28;20112;-42
2022/09/24 15:50:41;;;;;;;0.40;0.40;;;;;;;;;;5047627;28;20027;-41
2022/09/24 15:53:12;;;;;;;0.60;0.60;;;;;;;;;;5047738;28;20033;-41
2022/09/24 15:55:47;;;;;;;0.70;0.70;;;;;;;;;;5047518;28;20030;-41
2022/09/24 15:58:13;;;;;;;0.93;0.93;;;;;;;;;;5047583;28;20119;-42
2022/09/24 16:00:41;;;;;;;1.02;0.93;;;;;;;;;;5046988;28;20029;-42
2022/09/24 16:03:11;;;;;;;1.63;1.17;;;;;;;;;;5047384;28;20028;-41
2022/09/24 16:05:38;;;;;;;1.10;1.00;;;;;;;;;;5047068;28;20057;-41
2022/09/24 16:08:04;;;;;;;0.90;0.85;;;;;;;;;;5047317;28;20028;-41
2022/09/24 16:10:30;;;;;;;0.75;0.75;;;;;;;;;;5047269;28;20477;-41
2022/09/24 16:12:56;;;;;;;1.42;1.20;;;;;;;;;;5045829;28;20033;-40
2022/09/24 16:15:22;;;;;;;1.05;0.93;;;;;;;;;;5045853;28;20053;-41
2022/09/24 16:17:50;;;;;;;1.23;1.00;;;;;;;;;;5047849;28;20103;-40
2022/09/24 16:20:16;;;;;;;0.90;0.90;;;;;;;;;;5031989;28;20028;-40
2022/09/24 16:22:42;;;;;;;0.93;0.80;;;;;;;;;;5044473;28;20028;-41
2022/09/24 16:25:09;;;;;;;0.95;0.88;;;;;;;;;;5048174;28;20028;-40
2022/09/24 16:27:36;;;;;;;1.42;0.95;;;;;;;;;;5047454;28;20033;-40
2022/09/24 16:30:03;;;;;;;1.02;0.90;;;;;;;;;;5047856;28;20071;-41